This is the latest recevied weather packets stored in our database for station/object VK2HIM-1. If no packets are shown the sender has not sent any weather packets the latest 10 day(s).
| Time | Temp. | Humidity | Pressure | Rain* | Wind** | Luminosity | Snow |
|---|---|---|---|---|---|---|---|
| 1777865627 | 19.44° C | 86% | 1013.2 hPa | 0 mm | - | - | - |
| 1777863829 | 18.89° C | 88% | 1013.9 hPa | 0 mm | - | - | - |
| 1777862026 | 18.89° C | 88% | 1014 hPa | 0 mm | - | - | - |
| 1777860226 | 18.33° C | 90% | 1014.3 hPa | 0 mm | - | - | - |
| 1777858426 | 17.78° C | 91% | 1015 hPa | 0 mm | - | - | - |
| 1777856626 | 17.78° C | 92% | 1016.1 hPa | 0 mm | - | - | - |
| 1777854826 | 18.33° C | 88% | 1016.4 hPa | 0 mm | - | - | - |
| 1777853026 | 18.33° C | 85% | 1016 hPa | 0 mm | - | - | - |
| 1777851229 | 18.33° C | 88% | 1016 hPa | 0 mm | - | - | - |
| 1777849429 | 18.33° C | 89% | 1016.2 hPa | 0 mm | - | - | - |
| 1777847629 | 19.44° C | 85% | 1016.4 hPa | 0 mm | - | - | - |
| 1777845829 | 19.44° C | 85% | 1015.9 hPa | 0 mm | - | - | - |
| 1777844029 | 20° C | 82% | 1015.4 hPa | 0 mm | - | - | - |
| 1777842229 | 19.44° C | 83% | 1015.1 hPa | 0 mm | - | - | - |
| 1777840429 | 19.44° C | 83% | 1015.1 hPa | 0 mm | - | - | - |
| 1777838629 | 19.44° C | 83% | 1015 hPa | 0 mm | - | - | - |
| 1777836829 | 19.44° C | 85% | 1015.1 hPa | 0 mm | - | - | - |
| 1777835029 | 19.44° C | 85% | 1015.3 hPa | 0 mm | - | - | - |
| 1777833229 | 19.44° C | 84% | 1015.5 hPa | 0 mm | - | - | - |
| 1777831429 | 19.44° C | 82% | 1015.5 hPa | 0 mm | - | - | - |
| 1777829626 | 18.89° C | 84% | 1015.5 hPa | 0 mm | - | - | - |
| 1777827830 | 19.44° C | 84% | 1015.2 hPa | 0 mm | - | - | - |
| 1777826030 | 19.44° C | 83% | 1015.4 hPa | 0 mm | - | - | - |
| 1777824230 | 19.44° C | 84% | 1015.5 hPa | 0 mm | - | - | - |
| 1777822430 | 19.44° C | 85% | 1015.7 hPa | 0 mm | - | - | - |
* Rain latest hour (hover to see other rain measurements)
** Current wind speed in m/s (hover to see current wind gust speed)